Time;durP1;ratioP1;P1;durP2;ratioP2;P2;SDS_P1;SDS_P2;PMS_P1;PMS_P2;Temp;Humidity;BMP_temperature;BMP_pressure;BME280_temperature;BME280_humidity;BME280_pressure;Samples;Min_cycle;Max_cycle;Signal;HPM_P1;HPM_P2
2023/06/16 00:01:03;;;;;;;9.45;4.10;;;14.40;77.90;;;;;;5000016;28;20294;-67
2023/06/16 00:03:34;;;;;;;8.75;5.38;;;14.30;79.30;;;;;;5008303;28;20109;-68
2023/06/16 00:06:12;;;;;;;11.13;5.20;;;14.40;79.10;;;;;;5001484;28;20392;-68
2023/06/16 00:08:44;;;;;;;9.73;4.90;;;14.30;78.20;;;;;;4999191;28;20734;-69
2023/06/16 00:11:16;;;;;;;8.57;4.38;;;14.30;79.20;;;;;;5003255;28;20048;-69
2023/06/16 00:13:42;;;;;;;7.53;4.97;;;14.20;80.00;;;;;;4999673;28;20081;-68
2023/06/16 00:16:09;;;;;;;10.55;4.90;;;14.10;80.00;;;;;;5004827;28;20041;-67
2023/06/16 00:18:35;;;;;;;9.15;4.70;;;14.20;80.10;;;;;;5004137;28;20038;-67
2023/06/16 00:21:02;;;;;;;9.45;5.18;;;14.10;79.90;;;;;;5004657;28;20041;-68
2023/06/16 00:23:28;;;;;;;9.00;5.38;;;14.10;80.30;;;;;;4995007;28;20426;-70
2023/06/16 00:25:53;;;;;;;9.98;5.43;;;14.10;79.90;;;;;;5000105;28;20026;-67
2023/06/16 00:28:22;;;;;;;13.25;5.82;;;14.00;81.20;;;;;;5008070;28;20018;-68
2023/06/16 00:30:47;;;;;;;11.05;5.15;;;14.10;81.30;;;;;;5003280;28;20125;-68
2023/06/16 00:33:15;;;;;;;9.95;5.70;;;14.10;80.70;;;;;;5004178;28;20100;-68
2023/06/16 00:35:42;;;;;;;8.18;5.38;;;14.10;80.10;;;;;;4996723;28;20407;-68
2023/06/16 00:38:07;;;;;;;8.18;5.40;;;14.10;80.60;;;;;;5002412;28;20034;-67
2023/06/16 00:40:33;;;;;;;8.57;5.45;;;14.20;80.20;;;;;;5000347;28;20033;-67
2023/06/16 00:43:01;;;;;;;11.10;5.55;;;14.30;79.40;;;;;;5005675;28;20026;-67
2023/06/16 00:45:27;;;;;;;7.78;5.78;;;14.30;80.40;;;;;;5005220;28;20498;-70
2023/06/16 00:47:53;;;;;;;10.00;5.82;;;14.30;79.70;;;;;;5001183;28;20180;-68
2023/06/16 00:50:19;;;;;;;9.88;5.82;;;14.40;79.90;;;;;;5007794;28;20034;-70
2023/06/16 00:52:45;;;;;;;10.32;5.80;;;14.50;79.20;;;;;;5005709;28;20473;-68
2023/06/16 00:55:11;;;;;;;9.25;5.57;;;14.50;78.70;;;;;;5015855;28;20183;-68
2023/06/16 00:57:38;;;;;;;8.35;5.50;;;14.60;80.00;;;;;;5001041;28;20097;-68
2023/06/16 01:00:07;;;;;;;13.65;6.60;;;14.60;80.00;;;;;;4996055;28;20182;-68
2023/06/16 01:02:33;;;;;;;9.65;5.90;;;14.60;79.50;;;;;;5003771;28;20107;-67
2023/06/16 01:04:59;;;;;;;14.50;6.40;;;14.70;79.30;;;;;;4997802;28;20100;-67
2023/06/16 01:07:36;;;;;;;12.55;5.93;;;14.80;78.70;;;;;;4999929;28;20042;-67
2023/06/16 01:10:09;;;;;;;8.40;5.50;;;14.80;78.40;;;;;;5013920;28;20407;-68
2023/06/16 01:12:42;;;;;;;10.43;5.57;;;14.90;78.30;;;;;;5007134;28;20075;-68
2023/06/16 01:15:15;;;;;;;8.20;5.32;;;14.90;79.50;;;;;;5000698;28;20057;-68
2023/06/16 01:17:45;;;;;;;9.30;6.38;;;14.90;79.20;;;;;;5002062;28;20400;-68
2023/06/16 01:20:41;;;;;;;9.52;6.30;;;14.90;79.10;;;;;;4999250;28;20064;-70
2023/06/16 01:23:33;;;;;;;9.63;6.28;;;14.90;78.70;;;;;;4983089;28;20423;-71
2023/06/16 01:26:01;;;;;;;;;;;15.00;78.60;;;;;;4995052;28;20087;-68
2023/06/16 01:28:31;;;;;;;11.20;5.70;;;14.90;79.40;;;;;;5005220;28;20012;-68
2023/06/16 01:31:00;;;;;;;9.63;6.45;;;14.90;79.40;;;;;;5001876;28;20119;-68
2023/06/16 01:33:26;;;;;;;12.13;5.93;;;14.90;79.10;;;;;;5008837;28;20361;-68
2023/06/16 01:35:53;;;;;;;12.02;6.50;;;15.00;78.90;;;;;;5007707;28;20485;-68
2023/06/16 01:38:21;;;;;;;11.43;6.07;;;15.00;78.30;;;;;;4996319;28;20049;-69
2023/06/16 01:40:50;;;;;;;8.32;5.70;;;15.00;78.20;;;;;;4999988;28;20029;-72
2023/06/16 01:43:16;;;;;;;8.40;5.15;;;15.00;78.80;;;;;;5004669;28;20111;-68
2023/06/16 01:45:43;;;;;;;10.77;6.30;;;15.00;78.60;;;;;;5002788;28;20060;-69
2023/06/16 01:48:09;;;;;;;11.05;7.07;;;15.00;78.90;;;;;;5001796;28;20148;-68
2023/06/16 01:50:35;;;;;;;11.38;6.68;;;15.00;78.90;;;;;;5002642;28;20105;-69
2023/06/16 01:53:00;;;;;;;9.55;6.28;;;15.00;79.20;;;;;;4999187;28;20034;-68
2023/06/16 01:55:26;;;;;;;8.90;6.15;;;15.00;79.50;;;;;;5004373;28;20049;-69
2023/06/16 01:57:53;;;;;;;11.65;6.40;;;15.00;78.90;;;;;;5000538;28;20472;-69
2023/06/16 02:00:41;;;;;;;13.20;6.45;;;15.00;78.90;;;;;;5001873;28;20041;-70
2023/06/16 02:03:15;;;;;;;10.13;6.75;;;15.00;79.80;;;;;;4999622;28;20026;-68
2023/06/16 02:05:44;;;;;;;13.95;6.95;;;14.90;79.70;;;;;;4997595;28;20421;-68
2023/06/16 02:08:15;;;;;;;11.60;7.00;;;14.90;80.10;;;;;;4996739;28;20022;-68
2023/06/16 02:10:40;;;;;;;10.43;7.05;;;14.80;80.40;;;;;;5003427;28;20038;-69
2023/06/16 02:13:06;;;;;;;10.38;6.75;;;14.80;80.50;;;;;;5002119;28;20354;-72
2023/06/16 02:15:32;;;;;;;9.93;6.95;;;14.80;80.70;;;;;;5005280;28;20038;-68
2023/06/16 02:17:58;;;;;;;9.27;6.85;;;14.70;80.70;;;;;;5009490;28;20410;-69
2023/06/16 02:20:26;;;;;;;10.50;7.10;;;14.70;80.80;;;;;;5013382;28;20399;-68
2023/06/16 02:22:53;;;;;;;10.05;7.00;;;14.70;80.10;;;;;;5000088;28;20160;-70
2023/06/16 02:25:18;;;;;;;13.23;7.10;;;14.60;81.10;;;;;;5000886;28;20067;-69
2023/06/16 02:27:44;;;;;;;10.35;6.93;;;14.50;81.40;;;;;;5009700;28;20339;-67
2023/06/16 02:30:13;;;;;;;10.35;6.57;;;14.50;81.50;;;;;;5008737;28;20042;-69
2023/06/16 02:32:39;;;;;;;12.00;7.00;;;14.50;81.30;;;;;;5006279;28;20409;-68
2023/06/16 02:35:06;;;;;;;11.55;7.40;;;14.50;81.10;;;;;;5008495;28;20148;-70
2023/06/16 02:37:35;;;;;;;10.65;7.72;;;14.50;81.90;;;;;;5002570;28;20488;-69
2023/06/16 02:40:01;;;;;;;11.40;7.90;;;14.50;81.90;;;;;;5002194;28;20037;-67
2023/06/16 02:42:27;;;;;;;15.15;8.35;;;14.50;81.40;;;;;;5007878;28;20446;-68
2023/06/16 02:44:52;;;;;;;10.48;7.45;;;14.60;81.50;;;;;;5007812;28;20045;-68
2023/06/16 02:47:18;;;;;;;11.93;7.95;;;14.50;81.40;;;;;;5007522;28;20342;-68
2023/06/16 02:49:44;;;;;;;12.95;7.90;;;14.50;82.20;;;;;;5007417;28;20417;-68
2023/06/16 02:52:11;;;;;;;11.32;7.95;;;14.50;81.50;;;;;;5007740;28;20157;-68
2023/06/16 02:54:38;;;;;;;12.50;8.27;;;14.50;81.50;;;;;;5009590;28;20034;-68
2023/06/16 02:57:03;;;;;;;10.90;7.93;;;14.50;81.20;;;;;;5005309;28;20120;-68
2023/06/16 02:59:29;;;;;;;13.65;8.45;;;14.50;82.10;;;;;;5006542;28;20398;-67
2023/06/16 03:01:55;;;;;;;11.52;7.65;;;14.50;82.00;;;;;;5001718;28;20049;-67
2023/06/16 03:04:21;;;;;;;15.35;8.10;;;14.50;82.10;;;;;;5008261;28;20037;-67
2023/06/16 03:06:47;;;;;;;10.88;7.63;;;14.40;82.60;;;;;;5004959;28;20327;-68
2023/06/16 03:09:12;;;;;;;10.38;8.02;;;14.50;82.70;;;;;;5002950;28;20033;-68
2023/06/16 03:11:38;;;;;;;10.65;7.90;;;14.40;82.90;;;;;;5005804;28;20175;-67
2023/06/16 03:14:04;;;;;;;10.35;8.07;;;14.40;83.10;;;;;;5008271;28;20034;-68
2023/06/16 03:16:29;;;;;;;13.05;7.65;;;14.50;83.10;;;;;;5006260;28;20018;-67
2023/06/16 03:18:55;;;;;;;13.73;8.05;;;14.50;82.30;;;;;;5006657;28;20121;-67
2023/06/16 03:21:21;;;;;;;12.48;8.00;;;14.50;83.10;;;;;;5004866;28;20465;-68
2023/06/16 03:23:47;;;;;;;11.07;7.50;;;14.50;82.70;;;;;;5013321;28;20022;-69
2023/06/16 03:26:13;;;;;;;13.35;8.38;;;14.60;82.60;;;;;;5012305;28;20116;-69
2023/06/16 03:28:40;;;;;;;13.43;9.23;;;14.50;82.60;;;;;;5006987;28;20056;-67
2023/06/16 03:31:05;;;;;;;13.18;8.95;;;14.50;82.50;;;;;;5005090;28;20110;-71
2023/06/16 03:33:31;;;;;;;15.93;7.97;;;14.50;82.30;;;;;;5007503;28;20061;-66
2023/06/16 03:35:57;;;;;;;11.45;8.75;;;14.50;82.60;;;;;;5009649;28;20046;-66
2023/06/16 03:38:23;;;;;;;14.30;8.65;;;14.50;82.60;;;;;;5003718;28;20098;-66
2023/06/16 03:40:49;;;;;;;14.75;8.48;;;14.60;82.80;;;;;;5005285;28;20037;-66
2023/06/16 03:43:15;;;;;;;10.57;8.32;;;14.60;82.80;;;;;;5006207;28;20061;-67
2023/06/16 03:45:40;;;;;;;14.80;8.20;;;14.60;82.90;;;;;;5006276;28;20022;-66
2023/06/16 03:48:07;;;;;;;14.38;9.02;;;14.60;83.20;;;;;;5009519;28;20057;-67
2023/06/16 03:50:32;;;;;;;14.77;8.55;;;14.50;83.30;;;;;;5002108;28;20113;-67
2023/06/16 03:52:58;;;;;;;15.73;9.48;;;14.50;83.70;;;;;;5010423;28;20037;-66
2023/06/16 03:55:23;;;;;;;13.90;8.05;;;14.60;83.60;;;;;;4998229;28;20147;-66
2023/06/16 03:57:50;;;;;;;12.27;7.72;;;14.60;83.40;;;;;;5005851;28;20100;-66
2023/06/16 04:00:15;;;;;;;11.82;8.45;;;14.70;83.10;;;;;;5006972;28;20446;-68
2023/06/16 04:02:42;;;;;;;14.25;9.50;;;14.80;83.30;;;;;;5010447;28;20026;-67
2023/06/16 04:05:08;;;;;;;13.27;9.50;;;14.90;82.90;;;;;;5005429;28;20080;-67
2023/06/16 04:07:34;;;;;;;17.15;9.98;;;15.00;82.40;;;;;;4998858;28;20022;-67
2023/06/16 04:09:59;;;;;;;12.77;9.88;;;15.00;82.50;;;;;;4999614;28;20366;-67
2023/06/16 04:12:25;;;;;;;13.80;9.40;;;15.00;82.50;;;;;;5006159;28;20037;-66
2023/06/16 04:14:51;;;;;;;12.82;9.43;;;15.10;82.50;;;;;;4999867;28;20330;-66
2023/06/16 04:17:16;;;;;;;12.68;9.73;;;15.10;82.60;;;;;;4999724;28;20083;-66
2023/06/16 04:19:42;;;;;;;12.48;8.75;;;15.10;82.80;;;;;;4995094;28;20034;-66
2023/06/16 04:22:07;;;;;;;12.23;10.45;;;15.20;83.30;;;;;;5014373;28;20030;-66
2023/06/16 04:24:33;;;;;;;11.88;8.48;;;15.10;83.00;;;;;;4999120;28;20084;-66
2023/06/16 04:27:02;;;;;;;15.95;9.77;;;15.10;83.10;;;;;;5007978;28;20101;-67
2023/06/16 04:29:28;;;;;;;15.68;9.68;;;15.10;83.00;;;;;;5007685;28;20025;-65
2023/06/16 04:31:59;;;;;;;15.15;9.80;;;15.20;82.70;;;;;;5005782;28;20029;-68
2023/06/16 04:34:26;;;;;;;18.10;9.82;;;15.20;82.60;;;;;;5000461;28;20030;-65
2023/06/16 04:36:51;;;;;;;14.93;9.93;;;15.30;82.80;;;;;;5000581;28;20034;-65
2023/06/16 04:39:17;;;;;;;18.77;9.65;;;15.30;83.00;;;;;;5000428;28;20441;-63
2023/06/16 04:41:42;;;;;;;22.42;10.55;;;15.30;82.90;;;;;;5008957;28;20029;-65
2023/06/16 04:44:08;;;;;;;18.23;10.43;;;15.30;82.80;;;;;;5005268;28;20041;-65
2023/06/16 04:46:34;;;;;;;16.65;10.25;;;15.50;82.90;;;;;;5005766;28;20034;-64
2023/06/16 04:48:59;;;;;;;15.45;10.88;;;15.50;82.40;;;;;;4997388;28;20318;-64
2023/06/16 04:51:26;;;;;;;15.88;10.65;;;15.60;82.30;;;;;;4998037;28;20030;-64
2023/06/16 04:53:53;;;;;;;16.80;10.60;;;15.50;82.80;;;;;;5001532;28;20029;-65
2023/06/16 04:56:19;;;;;;;16.17;11.07;;;15.60;82.40;;;;;;5001672;28;20076;-67
2023/06/16 04:58:44;;;;;;;15.82;11.27;;;15.50;83.00;;;;;;4999246;28;20026;-66
2023/06/16 05:01:11;;;;;;;13.85;11.23;;;15.70;82.90;;;;;;4998475;28;20032;-64
2023/06/16 05:03:36;;;;;;;15.57;11.43;;;15.70;82.90;;;;;;5011594;28;20049;-64
2023/06/16 05:06:02;;;;;;;17.83;11.98;;;15.70;83.10;;;;;;4992356;28;20446;-64
2023/06/16 05:08:28;;;;;;;16.13;11.27;;;15.70;82.90;;;;;;5005006;28;20041;-66
2023/06/16 05:10:54;;;;;;;21.13;11.32;;;15.70;83.40;;;;;;5007061;28;20113;-65
2023/06/16 05:13:19;;;;;;;21.92;11.52;;;15.80;83.30;;;;;;5013816;28;20099;-64
2023/06/16 05:15:45;;;;;;;18.83;11.40;;;15.80;83.40;;;;;;5005405;28;20533;-70
2023/06/16 05:18:10;;;;;;;15.05;10.90;;;15.90;83.40;;;;;;5002054;28;20042;-65
2023/06/16 05:20:36;;;;;;;15.98;12.57;;;16.00;83.50;;;;;;4997569;28;20030;-63
2023/06/16 05:23:03;;;;;;;14.98;12.35;;;16.00;83.30;;;;;;4999454;28;20447;-65
2023/06/16 05:25:29;;;;;;;20.48;12.35;;;16.00;83.40;;;;;;4998298;28;20034;-65
2023/06/16 05:27:54;;;;;;;16.13;12.43;;;16.10;83.60;;;;;;5005391;28;20030;-65
2023/06/16 05:30:20;;;;;;;18.40;12.27;;;16.10;83.40;;;;;;5001014;28;20045;-69
2023/06/16 05:32:45;;;;;;;15.98;11.50;;;16.20;83.80;;;;;;5002055;28;20367;-67
2023/06/16 05:35:11;;;;;;;15.20;11.73;;;16.20;83.80;;;;;;5004947;28;20029;-64
2023/06/16 05:37:36;;;;;;;15.10;12.63;;;16.20;83.60;;;;;;5014548;28;20030;-65
2023/06/16 05:40:02;;;;;;;15.48;13.13;;;16.10;84.10;;;;;;4999788;28;20034;-65
2023/06/16 05:42:28;;;;;;;18.13;13.13;;;16.10;84.40;;;;;;5007741;28;20064;-65
2023/06/16 05:44:53;;;;;;;17.77;14.20;;;16.10;84.60;;;;;;5009292;28;20128;-65
2023/06/16 05:47:19;;;;;;;18.63;14.68;;;16.10;84.70;;;;;;5006191;28;20347;-66
2023/06/16 05:49:44;;;;;;;19.13;15.05;;;16.10;84.80;;;;;;5010544;28;20092;-67
2023/06/16 05:52:10;;;;;;;19.88;14.70;;;16.10;84.90;;;;;;4999652;28;20435;-66
2023/06/16 05:54:35;;;;;;;16.50;14.32;;;16.20;84.90;;;;;;5013545;28;20379;-67
2023/06/16 05:57:02;;;;;;;18.50;14.60;;;16.30;84.90;;;;;;5012308;28;20037;-64
2023/06/16 05:59:28;;;;;;;18.02;15.13;;;16.30;84.90;;;;;;5015927;28;20038;-64
2023/06/16 06:01:54;;;;;;;18.35;14.23;;;16.50;84.50;;;;;;5008601;28;20029;-67
2023/06/16 06:04:25;;;;;;;16.55;13.98;;;16.60;84.20;;;;;;5007313;28;20030;-69
2023/06/16 06:06:51;;;;;;;20.05;14.82;;;16.80;84.40;;;;;;5005748;28;20052;-65
2023/06/16 06:09:16;;;;;;;18.08;15.02;;;16.70;83.80;;;;;;5011554;28;20450;-65
2023/06/16 06:11:42;;;;;;;19.70;13.95;;;16.90;84.30;;;;;;5010444;28;20030;-64
2023/06/16 06:14:08;;;;;;;20.45;15.32;;;16.80;84.10;;;;;;5008181;28;20074;-66
2023/06/16 06:16:33;;;;;;;21.73;15.35;;;17.00;83.90;;;;;;5001047;28;20074;-64
2023/06/16 06:18:59;;;;;;;20.13;15.60;;;17.10;83.80;;;;;;5012532;28;20030;-65
2023/06/16 06:21:24;;;;;;;18.60;15.02;;;17.10;83.50;;;;;;5010966;28;20034;-65
2023/06/16 06:23:51;;;;;;;22.55;15.35;;;17.30;83.70;;;;;;5017092;28;20032;-65
2023/06/16 06:26:17;;;;;;;20.65;16.50;;;17.50;83.50;;;;;;5010413;28;20050;-65
2023/06/16 06:28:42;;;;;;;18.38;15.88;;;17.50;83.10;;;;;;5014507;28;20160;-65
2023/06/16 06:31:08;;;;;;;19.90;16.48;;;17.50;83.50;;;;;;5009780;28;20034;-65
2023/06/16 06:33:33;;;;;;;20.58;15.15;;;17.70;82.80;;;;;;5014568;28;20022;-66
2023/06/16 06:35:59;;;;;;;18.70;15.25;;;18.00;82.90;;;;;;5012472;28;20467;-66
2023/06/16 06:38:25;;;;;;;18.65;15.52;;;18.00;81.70;;;;;;4996991;28;20130;-65
2023/06/16 06:40:50;;;;;;;22.70;15.20;;;18.10;82.00;;;;;;5008230;28;20121;-68
2023/06/16 06:43:16;;;;;;;16.38;13.50;;;18.40;82.00;;;;;;5010061;28;20099;-64
2023/06/16 06:45:44;;;;;;;18.75;14.15;;;18.40;80.30;;;;;;5006771;28;20033;-65
2023/06/16 06:48:09;;;;;;;16.48;14.13;;;18.40;79.80;;;;;;5012122;28;20046;-66
2023/06/16 06:50:35;;;;;;;16.92;13.95;;;18.50;79.90;;;;;;4998153;28;20045;-66
2023/06/16 06:53:00;;;;;;;16.80;14.20;;;18.80;79.70;;;;;;5010655;28;20116;-66
2023/06/16 06:55:26;;;;;;;17.23;13.40;;;19.10;79.00;;;;;;5008460;28;20128;-65
2023/06/16 06:57:51;;;;;;;13.68;11.85;;;19.30;77.70;;;;;;5009143;28;20375;-66
2023/06/16 07:00:17;;;;;;;18.42;12.20;;;19.30;77.30;;;;;;5010586;28;20036;-69
2023/06/16 07:02:43;;;;;;;15.13;12.13;;;19.00;76.50;;;;;;5006159;28;20050;-66
2023/06/16 07:05:08;;;;;;;13.93;10.98;;;18.70;76.70;;;;;;5006077;28;20086;-65
2023/06/16 07:07:34;;;;;;;16.02;11.18;;;18.70;76.90;;;;;;5001398;28;20030;-64
2023/06/16 07:10:00;;;;;;;15.18;10.98;;;18.50;76.70;;;;;;5007090;28;20026;-68
2023/06/16 07:12:26;;;;;;;15.63;10.90;;;18.50;77.20;;;;;;5008086;28;20445;-66
2023/06/16 07:14:51;;;;;;;13.00;10.23;;;18.50;77.60;;;;;;5005725;28;20030;-66
2023/06/16 07:17:17;;;;;;;13.15;10.63;;;18.70;78.40;;;;;;5010177;28;20033;-65
2023/06/16 07:19:42;;;;;;;16.10;10.93;;;18.80;77.60;;;;;;5005331;28;20041;-66
2023/06/16 07:22:08;;;;;;;13.27;10.93;;;19.10;77.10;;;;;;5007398;28;20067;-65
2023/06/16 07:24:33;;;;;;;13.18;11.00;;;19.30;76.60;;;;;;5007009;28;20306;-66
2023/06/16 07:27:02;;;;;;;16.42;9.93;;;19.50;75.70;;;;;;5014706;28;20022;-66
2023/06/16 07:29:28;;;;;;;13.10;9.82;;;19.70;74.50;;;;;;5008567;28;20021;-64
2023/06/16 07:31:54;;;;;;;13.23;9.45;;;20.00;72.40;;;;;;5006785;28;20064;-67
2023/06/16 07:34:19;;;;;;;11.98;9.55;;;20.40;72.90;;;;;;5007899;28;20097;-65
2023/06/16 07:36:45;;;;;;;12.65;9.70;;;20.60;71.80;;;;;;5000017;28;20120;-68
2023/06/16 07:39:11;;;;;;;13.30;9.23;;;20.50;70.70;;;;;;5009104;28;20041;-65
2023/06/16 07:41:37;;;;;;;13.02;9.80;;;20.60;70.30;;;;;;5010208;28;20451;-68
2023/06/16 07:44:04;;;;;;;9.75;8.73;;;20.70;69.50;;;;;;5013490;28;20036;-65
2023/06/16 07:46:29;;;;;;;13.35;8.48;;;21.00;69.40;;;;;;4998301;28;20100;-66
2023/06/16 07:48:55;;;;;;;14.50;9.25;;;21.10;69.20;;;;;;5005966;28;21945;-65
2023/06/16 07:51:21;;;;;;;12.23;8.40;;;21.30;68.90;;;;;;5004624;28;20061;-65
2023/06/16 07:53:48;;;;;;;9.95;7.78;;;21.60;68.50;;;;;;5000815;28;20026;-66
2023/06/16 07:56:14;;;;;;;13.75;8.85;;;21.90;67.60;;;;;;5009817;28;20030;-65
2023/06/16 07:58:40;;;;;;;10.65;8.13;;;21.70;67.20;;;;;;5009263;28;20044;-66
2023/06/16 08:01:06;;;;;;;12.05;8.73;;;21.80;66.60;;;;;;5016530;28;20064;-65
2023/06/16 08:03:31;;;;;;;11.43;7.85;;;21.60;67.50;;;;;;5008199;28;20410;-65
2023/06/16 08:05:57;;;;;;;12.80;8.32;;;21.50;68.80;;;;;;5002090;28;20076;-65
2023/06/16 08:08:26;;;;;;;11.90;8.00;;;21.50;67.90;;;;;;5002773;28;20334;-67
2023/06/16 08:10:53;;;;;;;13.25;8.48;;;21.40;68.40;;;;;;5004982;28;20059;-66
2023/06/16 08:13:19;;;;;;;11.93;7.65;;;21.00;69.10;;;;;;5009051;28;20072;-65
2023/06/16 08:15:44;;;;;;;13.23;8.23;;;21.20;69.30;;;;;;5003897;28;20117;-65
2023/06/16 08:18:10;;;;;;;10.80;8.20;;;21.40;67.80;;;;;;5012288;28;20476;-66
2023/06/16 08:20:35;;;;;;;12.35;8.98;;;21.80;68.40;;;;;;5003099;28;20027;-66
2023/06/16 08:23:01;;;;;;;11.38;9.32;;;21.80;67.60;;;;;;5001792;28;20427;-64
2023/06/16 08:25:27;;;;;;;13.27;8.85;;;22.00;67.80;;;;;;5003648;28;20096;-66
2023/06/16 08:27:52;;;;;;;10.90;8.63;;;22.30;67.30;;;;;;5001761;28;20030;-65
2023/06/16 08:30:18;;;;;;;10.60;8.32;;;22.50;65.10;;;;;;5003955;28;20026;-65
2023/06/16 08:32:43;;;;;;;12.55;8.05;;;22.70;63.20;;;;;;5005817;28;20025;-65
2023/06/16 08:35:10;;;;;;;13.35;7.22;;;22.50;63.20;;;;;;5003627;28;20062;-65
2023/06/16 08:37:36;;;;;;;9.18;6.78;;;22.50;64.00;;;;;;4998302;28;20041;-66
2023/06/16 08:40:04;;;;;;;11.35;7.00;;;22.60;63.30;;;;;;5008228;28;20109;-65
2023/06/16 08:42:31;;;;;;;11.13;7.28;;;22.50;62.30;;;;;;5005949;28;20076;-65
2023/06/16 08:44:59;;;;;;;13.35;7.28;;;22.50;63.60;;;;;;5002046;28;20163;-65
2023/06/16 08:47:25;;;;;;;11.73;6.63;;;22.60;62.00;;;;;;5006340;28;20114;-64
2023/06/16 08:49:52;;;;;;;10.55;7.07;;;23.50;63.20;;;;;;5001436;28;20450;-65
2023/06/16 08:52:21;;;;;;;12.00;6.70;;;23.40;59.90;;;;;;5004941;28;20117;-65
2023/06/16 08:54:49;;;;;;;10.95;7.25;;;23.50;60.60;;;;;;5006348;28;20021;-66
2023/06/16 08:57:17;;;;;;;9.57;6.72;;;23.60;60.80;;;;;;5012284;28;20391;-65
2023/06/16 08:59:45;;;;;;;8.32;6.22;;;24.00;60.30;;;;;;5006857;28;20129;-67
2023/06/16 09:02:11;;;;;;;8.88;6.50;;;23.50;57.10;;;;;;4997326;28;21323;-66
2023/06/16 09:04:37;;;;;;;11.18;6.85;;;23.30;57.50;;;;;;4997328;28;20371;-65
2023/06/16 09:07:03;;;;;;;7.53;5.25;;;23.90;58.00;;;;;;5000338;28;20122;-66
2023/06/16 09:09:28;;;;;;;10.70;5.82;;;24.00;58.40;;;;;;4999651;28;20045;-65
2023/06/16 09:12:08;;;;;;;10.50;6.55;;;24.40;56.40;;;;;;5001857;28;20052;-66
2023/06/16 09:14:36;;;;;;;8.35;5.97;;;24.20;56.70;;;;;;5000308;28;20046;-67
2023/06/16 09:17:05;;;;;;;11.38;6.10;;;23.60;55.60;;;;;;5005257;28;20137;-66
2023/06/16 09:19:34;;;;;;;11.48;6.32;;;23.50;57.40;;;;;;5003623;28;20075;-68
2023/06/16 09:22:00;;;;;;;8.65;6.13;;;23.70;57.80;;;;;;5007039;28;20402;-66
2023/06/16 09:24:29;;;;;;;8.32;5.40;;;24.00;55.70;;;;;;5000683;28;20056;-67
2023/06/16 09:26:59;;;;;;;7.63;5.13;;;24.60;55.00;;;;;;5002607;28;20088;-65
2023/06/16 09:29:26;;;;;;;7.30;4.95;;;23.90;56.50;;;;;;5007889;28;20528;-67
2023/06/16 09:31:52;;;;;;;8.18;5.22;;;24.30;56.40;;;;;;5008884;28;20446;-68
2023/06/16 09:34:18;;;;;;;8.00;5.20;;;24.00;54.70;;;;;;5005464;28;20041;-65
2023/06/16 09:36:44;;;;;;;10.45;6.00;;;23.90;54.30;;;;;;4999367;28;20701;-67
2023/06/16 09:39:26;;;;;;;9.55;5.70;;;24.10;54.40;;;;;;5003301;28;20327;-65
2023/06/16 09:41:53;;;;;;;10.50;5.10;;;24.20;53.90;;;;;;5008518;28;20049;-65
2023/06/16 09:44:21;;;;;;;9.45;5.10;;;24.70;53.40;;;;;;4999271;28;20119;-66
2023/06/16 09:46:49;;;;;;;9.40;5.53;;;24.40;53.20;;;;;;5007526;28;20046;-66
2023/06/16 09:49:22;;;;;;;7.80;4.72;;;24.30;54.00;;;;;;5011429;28;20342;-65
2023/06/16 09:51:52;;;;;;;8.27;5.38;;;24.50;53.00;;;;;;5011348;28;20022;-66
2023/06/16 09:54:20;;;;;;;7.28;4.45;;;24.50;53.00;;;;;;5002105;28;20107;-65
2023/06/16 09:56:46;;;;;;;7.82;5.15;;;25.30;52.20;;;;;;5007183;28;20089;-65
2023/06/16 09:59:11;;;;;;;8.88;4.93;;;25.60;51.60;;;;;;5009253;28;20099;-66
2023/06/16 10:01:40;;;;;;;12.90;5.57;;;25.20;53.10;;;;;;5002995;28;20026;-67
2023/06/16 10:04:08;;;;;;;8.70;4.88;;;24.90;52.10;;;;;;5005585;28;20165;-64
2023/06/16 10:06:43;;;;;;;7.15;4.85;;;24.30;54.50;;;;;;4999299;28;20391;-71
2023/06/16 10:09:10;;;;;;;7.50;3.88;;;24.20;53.90;;;;;;4996621;28;20120;-65
2023/06/16 10:11:37;;;;;;;5.75;4.07;;;24.60;53.90;;;;;;4999701;28;20026;-67
2023/06/16 10:14:07;;;;;;;7.85;3.60;;;24.50;49.40;;;;;;5001257;28;20106;-65
2023/06/16 10:16:35;;;;;;;7.50;4.28;;;24.60;52.10;;;;;;5018009;28;20050;-66
2023/06/16 10:19:02;;;;;;;7.18;4.28;;;24.60;50.80;;;;;;5009055;28;20030;-66
2023/06/16 10:21:29;;;;;;;7.95;4.68;;;24.30;52.80;;;;;;4998273;28;20028;-67
2023/06/16 10:23:55;;;;;;;6.80;4.15;;;24.40;53.30;;;;;;5006961;28;20058;-66
2023/06/16 10:26:20;;;;;;;6.95;4.22;;;24.00;54.70;;;;;;5002360;28;20048;-65
2023/06/16 10:28:47;;;;;;;6.30;4.10;;;24.00;54.30;;;;;;5003351;28;20386;-67
2023/06/16 10:31:14;;;;;;;7.60;4.28;;;24.00;53.50;;;;;;5006219;28;20311;-67
2023/06/16 10:33:59;;;;;;;8.20;3.95;;;24.00;52.90;;;;;;5012690;28;20037;-68
2023/06/16 10:36:29;;;;;;;7.25;4.20;;;24.00;52.70;;;;;;4998562;28;20034;-66
2023/06/16 10:38:59;;;;;;;7.30;3.88;;;23.40;55.30;;;;;;5015466;28;20057;-65
2023/06/16 10:41:29;;;;;;;7.80;3.90;;;23.40;55.50;;;;;;4999627;28;20114;-65
2023/06/16 10:43:55;;;;;;;9.73;4.15;;;23.30;54.50;;;;;;5001209;28;20030;-65
2023/06/16 10:46:21;;;;;;;9.25;4.35;;;23.20;54.80;;;;;;5000149;28;20399;-66
2023/06/16 10:49:10;;;;;;;10.07;3.92;;;22.80;58.30;;;;;;5002309;28;20048;-68
2023/06/16 10:51:47;;;;;;;8.43;4.07;;;22.30;60.20;;;;;;5000093;28;20030;-65
2023/06/16 10:54:15;;;;;;;9.43;3.92;;;22.20;59.60;;;;;;4996748;28;20038;-65
2023/06/16 10:57:00;;;;;;;6.55;3.50;;;22.40;62.70;;;;;;5007100;28;20175;-66
2023/06/16 10:59:25;;;;;;;7.00;4.22;;;22.30;61.10;;;;;;5010693;28;20030;-65
2023/06/16 11:01:56;;;;;;;8.40;3.95;;;22.50;59.90;;;;;;5000801;28;20103;-65
2023/06/16 11:04:22;;;;;;;10.18;4.03;;;22.80;61.10;;;;;;5002735;28;20213;-66
2023/06/16 11:07:08;;;;;;;10.68;4.38;;;23.00;59.20;;;;;;4999178;28;20467;-66
2023/06/16 11:09:35;;;;;;;15.35;4.22;;;23.00;58.40;;;;;;5001489;28;20093;-66
2023/06/16 11:12:01;;;;;;;9.20;3.53;;;23.00;56.50;;;;;;5001574;28;20156;-66
2023/06/16 11:14:27;;;;;;;6.80;3.67;;;23.00;56.60;;;;;;5019758;28;20073;-65
2023/06/16 11:16:54;;;;;;;8.30;4.30;;;22.70;56.60;;;;;;5004876;28;20277;-68
2023/06/16 11:19:20;;;;;;;7.47;3.55;;;22.70;58.00;;;;;;5005849;28;20124;-65
2023/06/16 11:21:46;;;;;;;6.32;4.20;;;22.70;58.60;;;;;;4998058;28;20033;-67
2023/06/16 11:24:13;;;;;;;7.00;3.92;;;22.50;58.90;;;;;;5002945;28;20018;-65
2023/06/16 11:26:39;;;;;;;6.28;3.75;;;22.30;58.00;;;;;;5005146;28;20462;-65
2023/06/16 11:29:05;;;;;;;9.60;4.05;;;22.50;59.30;;;;;;5004317;28;20029;-66
2023/06/16 11:31:35;;;;;;;7.40;3.95;;;22.50;58.80;;;;;;4998486;28;20025;-66
2023/06/16 11:34:01;;;;;;;6.53;4.15;;;22.50;58.30;;;;;;5010211;28;20057;-66
2023/06/16 11:36:27;;;;;;;6.95;4.03;;;22.50;60.40;;;;;;5005438;28;20038;-66
2023/06/16 11:38:56;;;;;;;11.63;5.05;;;22.30;64.40;;;;;;4975757;28;20106;-66
2023/06/16 11:44:45;;;;;;;9.55;5.10;;;21.50;71.30;;;;;;5008837;28;20441;-69
2023/06/16 11:47:11;;;;;;;9.70;4.90;;;20.80;68.90;;;;;;4996429;28;20042;-64
2023/06/16 11:49:37;;;;;;;8.23;5.10;;;20.50;72.10;;;;;;5002555;28;20152;-65
2023/06/16 11:52:06;;;;;;;6.95;5.15;;;20.40;72.90;;;;;;5000112;28;20158;-64
2023/06/16 11:54:35;;;;;;;6.78;4.90;;;20.30;72.70;;;;;;5000083;28;20038;-65
2023/06/16 11:57:01;;;;;;;9.00;5.38;;;20.30;71.60;;;;;;5005563;28;20087;-66
2023/06/16 11:59:32;;;;;;;8.23;5.40;;;20.20;71.00;;;;;;5003409;28;20108;-65
2023/06/16 12:01:58;;;;;;;12.48;4.80;;;20.20;71.90;;;;;;5010709;28;20473;-64
2023/06/16 12:04:27;;;;;;;8.57;4.78;;;20.20;72.00;;;;;;5009050;28;20095;-66
2023/06/16 12:06:56;;;;;;;7.25;4.60;;;20.20;70.70;;;;;;5003356;28;20354;-67
2023/06/16 12:09:22;;;;;;;9.93;5.15;;;20.20;69.70;;;;;;4999946;28;20109;-66
2023/06/16 12:11:48;;;;;;;6.82;4.55;;;20.20;67.30;;;;;;4999444;28;20037;-65
2023/06/16 12:14:21;;;;;;;7.15;4.32;;;20.30;67.30;;;;;;5001538;28;20558;-66
2023/06/16 12:16:48;;;;;;;9.15;4.88;;;20.30;68.80;;;;;;5010187;28;20045;-65
2023/06/16 12:19:18;;;;;;;8.38;5.15;;;20.30;68.00;;;;;;5010366;28;20385;-65
2023/06/16 12:21:43;;;;;;;6.80;4.77;;;20.20;67.30;;;;;;5014722;28;20026;-68
2023/06/16 12:24:09;;;;;;;6.45;4.55;;;20.40;67.00;;;;;;5002369;28;20417;-65
2023/06/16 12:26:43;;;;;;;9.35;5.18;;;20.50;65.90;;;;;;5012505;28;20048;-65
2023/06/16 12:29:12;;;;;;;8.52;4.82;;;20.60;64.70;;;;;;5009943;28;20037;-65
2023/06/16 12:31:58;;;;;;;7.88;4.90;;;20.60;66.50;;;;;;5002644;28;20025;-68
2023/06/16 12:34:26;;;;;;;8.75;5.07;;;20.70;65.10;;;;;;5003715;28;20025;-67
2023/06/16 12:36:53;;;;;;;7.95;5.20;;;20.80;67.70;;;;;;5008935;28;20079;-65
2023/06/16 12:39:20;;;;;;;5.95;4.60;;;20.80;67.10;;;;;;5006587;28;20589;-65
2023/06/16 12:42:00;;;;;;;6.97;4.40;;;20.80;66.80;;;;;;5002372;28;20079;-66